sensor_id;sensor_type;location;lat;lon;timestamp;P1;durP1;ratioP1;P2;durP2;ratioP2
20365;SDS011;10341;49.894;8.822;2022-08-01T00:01:11;3.08;;;2.47;;
20365;SDS011;10341;49.894;8.822;2022-08-01T00:06:31;4.32;;;2.20;;
20365;SDS011;10341;49.894;8.822;2022-08-01T00:11:50;2.88;;;2.58;;
20365;SDS011;10341;49.894;8.822;2022-08-01T00:17:09;2.83;;;2.20;;
20365;SDS011;10341;49.894;8.822;2022-08-01T00:22:30;2.85;;;2.05;;
20365;SDS011;10341;49.894;8.822;2022-08-01T00:27:50;2.50;;;2.17;;
20365;SDS011;10341;49.894;8.822;2022-08-01T00:33:08;2.58;;;2.30;;
20365;SDS011;10341;49.894;8.822;2022-08-01T00:38:27;2.88;;;2.28;;
20365;SDS011;10341;49.894;8.822;2022-08-01T00:43:47;2.33;;;2.00;;
20365;SDS011;10341;49.894;8.822;2022-08-01T00:49:07;2.58;;;2.00;;
20365;SDS011;10341;49.894;8.822;2022-08-01T00:54:26;2.33;;;1.93;;
20365;SDS011;10341;49.894;8.822;2022-08-01T00:59:46;1.90;;;1.70;;
20365;SDS011;10341;49.894;8.822;2022-08-01T01:05:06;2.65;;;2.10;;
20365;SDS011;10341;49.894;8.822;2022-08-01T01:15:55;2.78;;;2.00;;
20365;SDS011;10341;49.894;8.822;2022-08-01T01:26:49;3.22;;;2.00;;
20365;SDS011;10341;49.894;8.822;2022-08-01T01:32:30;4.07;;;2.25;;
20365;SDS011;10341;49.894;8.822;2022-08-01T01:38:13;2.92;;;2.30;;
20365;SDS011;10341;49.894;8.822;2022-08-01T01:43:36;1.90;;;1.77;;
20365;SDS011;10341;49.894;8.822;2022-08-01T01:54:17;3.43;;;2.00;;
20365;SDS011;10341;49.894;8.822;2022-08-01T01:59:38;3.47;;;1.92;;
20365;SDS011;10341;49.894;8.822;2022-08-01T02:04:59;2.30;;;2.10;;
20365;SDS011;10341;49.894;8.822;2022-08-01T02:10:20;2.92;;;2.22;;
20365;SDS011;10341;49.894;8.822;2022-08-01T02:15:40;2.38;;;1.90;;
20365;SDS011;10341;49.894;8.822;2022-08-01T02:21:00;2.97;;;2.05;;
20365;SDS011;10341;49.894;8.822;2022-08-01T02:26:23;2.95;;;2.03;;
20365;SDS011;10341;49.894;8.822;2022-08-01T02:31:43;1.95;;;1.58;;
20365;SDS011;10341;49.894;8.822;2022-08-01T02:37:05;2.47;;;1.83;;
20365;SDS011;10341;49.894;8.822;2022-08-01T02:42:25;2.57;;;1.93;;
20365;SDS011;10341;49.894;8.822;2022-08-01T02:47:46;1.90;;;1.80;;
20365;SDS011;10341;49.894;8.822;2022-08-01T02:53:08;2.97;;;1.63;;
20365;SDS011;10341;49.894;8.822;2022-08-01T02:58:31;1.60;;;1.42;;
20365;SDS011;10341;49.894;8.822;2022-08-01T03:03:52;1.60;;;1.50;;
20365;SDS011;10341;49.894;8.822;2022-08-01T03:09:12;2.30;;;1.80;;
20365;SDS011;10341;49.894;8.822;2022-08-01T03:14:32;2.72;;;1.83;;
20365;SDS011;10341;49.894;8.822;2022-08-01T03:19:56;2.15;;;1.80;;
20365;SDS011;10341;49.894;8.822;2022-08-01T03:25:17;2.92;;;1.70;;
20365;SDS011;10341;49.894;8.822;2022-08-01T03:30:38;2.28;;;1.92;;
20365;SDS011;10341;49.894;8.822;2022-08-01T03:35:59;1.65;;;1.55;;
20365;SDS011;10341;49.894;8.822;2022-08-01T03:41:21;1.98;;;1.60;;
20365;SDS011;10341;49.894;8.822;2022-08-01T03:46:45;1.52;;;1.40;;
20365;SDS011;10341;49.894;8.822;2022-08-01T03:52:07;1.95;;;1.38;;
20365;SDS011;10341;49.894;8.822;2022-08-01T03:57:27;1.38;;;1.27;;
20365;SDS011;10341;49.894;8.822;2022-08-01T04:02:48;3.20;;;1.48;;
20365;SDS011;10341;49.894;8.822;2022-08-01T04:08:09;1.60;;;1.50;;
20365;SDS011;10341;49.894;8.822;2022-08-01T04:18:51;2.17;;;1.55;;
20365;SDS011;10341;49.894;8.822;2022-08-01T04:24:12;1.40;;;1.30;;
20365;SDS011;10341;49.894;8.822;2022-08-01T04:29:35;3.13;;;1.60;;
20365;SDS011;10341;49.894;8.822;2022-08-01T04:34:56;3.25;;;1.80;;
20365;SDS011;10341;49.894;8.822;2022-08-01T04:40:18;1.70;;;1.60;;
20365;SDS011;10341;49.894;8.822;2022-08-01T04:45:40;3.35;;;1.63;;
20365;SDS011;10341;49.894;8.822;2022-08-01T04:51:02;1.92;;;1.65;;
20365;SDS011;10341;49.894;8.822;2022-08-01T04:56:21;2.35;;;1.73;;
20365;SDS011;10341;49.894;8.822;2022-08-01T05:01:41;3.45;;;1.45;;
20365;SDS011;10341;49.894;8.822;2022-08-01T05:07:00;2.25;;;1.67;;
20365;SDS011;10341;49.894;8.822;2022-08-01T05:12:19;2.65;;;1.30;;
20365;SDS011;10341;49.894;8.822;2022-08-01T05:17:39;2.22;;;1.50;;
20365;SDS011;10341;49.894;8.822;2022-08-01T05:22:58;2.15;;;1.70;;
20365;SDS011;10341;49.894;8.822;2022-08-01T05:28:17;1.77;;;1.40;;
20365;SDS011;10341;49.894;8.822;2022-08-01T05:33:36;2.38;;;1.20;;
20365;SDS011;10341;49.894;8.822;2022-08-01T05:38:55;1.80;;;1.20;;
20365;SDS011;10341;49.894;8.822;2022-08-01T05:44:14;2.28;;;1.60;;
20365;SDS011;10341;49.894;8.822;2022-08-01T05:49:34;1.20;;;1.10;;
20365;SDS011;10341;49.894;8.822;2022-08-01T05:54:53;1.50;;;1.20;;
20365;SDS011;10341;49.894;8.822;2022-08-01T06:00:12;1.45;;;1.00;;
20365;SDS011;10341;49.894;8.822;2022-08-01T06:05:33;2.35;;;1.50;;
20365;SDS011;10341;49.894;8.822;2022-08-01T06:10:52;1.35;;;1.10;;
20365;SDS011;10341;49.894;8.822;2022-08-01T06:16:11;1.13;;;1.00;;
20365;SDS011;10341;49.894;8.822;2022-08-01T06:21:30;1.38;;;1.17;;
20365;SDS011;10341;49.894;8.822;2022-08-01T06:26:49;3.55;;;1.20;;
20365;SDS011;10341;49.894;8.822;2022-08-01T06:32:09;1.52;;;1.40;;
20365;SDS011;10341;49.894;8.822;2022-08-01T06:37:29;4.05;;;1.30;;
20365;SDS011;10341;49.894;8.822;2022-08-01T06:42:49;2.88;;;1.30;;
20365;SDS011;10341;49.894;8.822;2022-08-01T06:48:08;2.65;;;1.65;;
20365;SDS011;10341;49.894;8.822;2022-08-01T06:53:28;4.97;;;1.20;;
20365;SDS011;10341;49.894;8.822;2022-08-01T06:58:47;2.33;;;1.30;;
20365;SDS011;10341;49.894;8.822;2022-08-01T07:09:26;1.40;;;1.30;;
20365;SDS011;10341;49.894;8.822;2022-08-01T07:14:45;2.75;;;1.48;;
20365;SDS011;10341;49.894;8.822;2022-08-01T07:20:05;1.92;;;1.30;;
20365;SDS011;10341;49.894;8.822;2022-08-01T07:25:26;3.63;;;1.70;;
20365;SDS011;10341;49.894;8.822;2022-08-01T07:30:44;1.60;;;1.50;;
20365;SDS011;10341;49.894;8.822;2022-08-01T07:36:04;3.20;;;1.50;;
20365;SDS011;10341;49.894;8.822;2022-08-01T07:41:23;2.08;;;1.58;;
20365;SDS011;10341;49.894;8.822;2022-08-01T07:46:42;3.37;;;1.53;;
20365;SDS011;10341;49.894;8.822;2022-08-01T07:52:02;2.00;;;1.70;;
20365;SDS011;10341;49.894;8.822;2022-08-01T07:57:22;2.28;;;1.45;;
20365;SDS011;10341;49.894;8.822;2022-08-01T08:02:42;1.98;;;1.60;;
20365;SDS011;10341;49.894;8.822;2022-08-01T08:08:01;1.90;;;1.53;;
20365;SDS011;10341;49.894;8.822;2022-08-01T08:13:24;1.50;;;1.40;;
20365;SDS011;10341;49.894;8.822;2022-08-01T08:18:43;2.58;;;1.45;;
20365;SDS011;10341;49.894;8.822;2022-08-01T08:29:40;1.48;;;1.38;;
20365;SDS011;10341;49.894;8.822;2022-08-01T08:35:00;3.38;;;1.40;;
20365;SDS011;10341;49.894;8.822;2022-08-01T08:40:20;3.13;;;1.42;;
20365;SDS011;10341;49.894;8.822;2022-08-01T08:45:44;2.58;;;1.40;;
20365;SDS011;10341;49.894;8.822;2022-08-01T08:51:04;1.35;;;1.25;;
20365;SDS011;10341;49.894;8.822;2022-08-01T08:56:25;1.48;;;1.38;;
20365;SDS011;10341;49.894;8.822;2022-08-01T09:01:48;1.80;;;1.60;;
20365;SDS011;10341;49.894;8.822;2022-08-01T09:07:06;2.53;;;1.98;;
20365;SDS011;10341;49.894;8.822;2022-08-01T09:12:27;2.78;;;1.63;;
20365;SDS011;10341;49.894;8.822;2022-08-01T09:17:46;2.63;;;1.60;;
20365;SDS011;10341;49.894;8.822;2022-08-01T09:23:05;1.60;;;1.45;;
20365;SDS011;10341;49.894;8.822;2022-08-01T09:28:28;1.95;;;1.20;;
20365;SDS011;10341;49.894;8.822;2022-08-01T09:33:58;1.55;;;1.42;;
20365;SDS011;10341;49.894;8.822;2022-08-01T09:39:23;1.38;;;1.27;;
20365;SDS011;10341;49.894;8.822;2022-08-01T09:44:46;2.28;;;1.20;;
20365;SDS011;10341;49.894;8.822;2022-08-01T09:50:06;1.80;;;1.30;;
20365;SDS011;10341;49.894;8.822;2022-08-01T09:55:26;1.40;;;1.30;;
20365;SDS011;10341;49.894;8.822;2022-08-01T10:00:57;1.95;;;1.35;;
20365;SDS011;10341;49.894;8.822;2022-08-01T10:06:19;2.60;;;1.38;;
20365;SDS011;10341;49.894;8.822;2022-08-01T10:11:43;2.35;;;1.40;;
20365;SDS011;10341;49.894;8.822;2022-08-01T10:17:02;1.35;;;1.10;;
20365;SDS011;10341;49.894;8.822;2022-08-01T10:22:25;1.40;;;1.20;;
20365;SDS011;10341;49.894;8.822;2022-08-01T10:27:48;2.30;;;1.13;;
20365;SDS011;10341;49.894;8.822;2022-08-01T10:33:08;1.70;;;1.13;;
20365;SDS011;10341;49.894;8.822;2022-08-01T10:38:28;2.85;;;1.15;;
20365;SDS011;10341;49.894;8.822;2022-08-01T10:43:48;2.03;;;1.70;;
20365;SDS011;10341;49.894;8.822;2022-08-01T10:49:11;2.03;;;1.17;;
20365;SDS011;10341;49.894;8.822;2022-08-01T10:54:38;1.38;;;1.20;;
20365;SDS011;10341;49.894;8.822;2022-08-01T10:59:59;2.88;;;1.50;;
20365;SDS011;10341;49.894;8.822;2022-08-01T11:05:20;1.38;;;1.27;;
20365;SDS011;10341;49.894;8.822;2022-08-01T11:10:41;1.90;;;1.80;;
20365;SDS011;10341;49.894;8.822;2022-08-01T11:16:24;3.33;;;1.40;;
20365;SDS011;10341;49.894;8.822;2022-08-01T11:21:57;2.92;;;1.80;;
20365;SDS011;10341;49.894;8.822;2022-08-01T11:27:30;1.90;;;1.30;;
20365;SDS011;10341;49.894;8.822;2022-08-01T11:32:51;2.00;;;1.05;;
20365;SDS011;10341;49.894;8.822;2022-08-01T11:38:23;3.20;;;1.58;;
20365;SDS011;10341;49.894;8.822;2022-08-01T11:43:59;2.58;;;1.98;;
20365;SDS011;10341;49.894;8.822;2022-08-01T11:54:57;1.50;;;1.30;;
20365;SDS011;10341;49.894;8.822;2022-08-01T12:00:22;1.65;;;1.50;;
20365;SDS011;10341;49.894;8.822;2022-08-01T12:05:43;1.60;;;1.50;;
20365;SDS011;10341;49.894;8.822;2022-08-01T12:11:03;2.55;;;1.45;;
20365;SDS011;10341;49.894;8.822;2022-08-01T12:16:24;1.70;;;1.60;;
20365;SDS011;10341;49.894;8.822;2022-08-01T12:21:43;1.48;;;1.20;;
20365;SDS011;10341;49.894;8.822;2022-08-01T12:27:02;3.10;;;1.80;;
20365;SDS011;10341;49.894;8.822;2022-08-01T12:32:27;1.83;;;1.30;;
20365;SDS011;10341;49.894;8.822;2022-08-01T12:37:50;1.33;;;1.23;;
20365;SDS011;10341;49.894;8.822;2022-08-01T12:43:15;1.20;;;1.10;;
20365;SDS011;10341;49.894;8.822;2022-08-01T12:48:36;1.30;;;1.20;;
20365;SDS011;10341;49.894;8.822;2022-08-01T12:54:00;1.38;;;1.27;;
20365;SDS011;10341;49.894;8.822;2022-08-01T12:59:20;7.05;;;1.52;;
20365;SDS011;10341;49.894;8.822;2022-08-01T13:04:50;1.30;;;1.20;;
20365;SDS011;10341;49.894;8.822;2022-08-01T13:10:11;1.27;;;1.05;;
20365;SDS011;10341;49.894;8.822;2022-08-01T13:15:32;1.10;;;1.10;;
20365;SDS011;10341;49.894;8.822;2022-08-01T13:21:13;1.10;;;1.00;;
20365;SDS011;10341;49.894;8.822;2022-08-01T13:32:01;1.13;;;1.02;;
20365;SDS011;10341;49.894;8.822;2022-08-01T13:37:33;2.00;;;1.20;;
20365;SDS011;10341;49.894;8.822;2022-08-01T13:42:53;1.40;;;1.30;;
20365;SDS011;10341;49.894;8.822;2022-08-01T13:48:15;2.13;;;1.40;;
20365;SDS011;10341;49.894;8.822;2022-08-01T13:53:34;1.50;;;1.40;;
20365;SDS011;10341;49.894;8.822;2022-08-01T13:58:54;2.15;;;1.55;;
20365;SDS011;10341;49.894;8.822;2022-08-01T14:04:14;1.30;;;1.20;;
20365;SDS011;10341;49.894;8.822;2022-08-01T14:09:34;1.48;;;1.38;;
20365;SDS011;10341;49.894;8.822;2022-08-01T14:14:53;1.67;;;1.30;;
20365;SDS011;10341;49.894;8.822;2022-08-01T14:20:12;1.45;;;1.10;;
20365;SDS011;10341;49.894;8.822;2022-08-01T14:25:31;1.70;;;1.45;;
20365;SDS011;10341;49.894;8.822;2022-08-01T14:30:50;2.75;;;1.40;;
20365;SDS011;10341;49.894;8.822;2022-08-01T14:36:09;2.28;;;1.20;;
20365;SDS011;10341;49.894;8.822;2022-08-01T14:41:28;1.40;;;1.30;;
20365;SDS011;10341;49.894;8.822;2022-08-01T14:46:48;2.08;;;1.45;;
20365;SDS011;10341;49.894;8.822;2022-08-01T14:52:08;1.83;;;1.23;;
20365;SDS011;10341;49.894;8.822;2022-08-01T14:57:27;1.30;;;1.20;;
20365;SDS011;10341;49.894;8.822;2022-08-01T15:08:06;2.00;;;1.38;;
20365;SDS011;10341;49.894;8.822;2022-08-01T15:13:26;1.50;;;1.40;;
20365;SDS011;10341;49.894;8.822;2022-08-01T15:18:44;2.55;;;1.65;;
20365;SDS011;10341;49.894;8.822;2022-08-01T15:24:04;1.40;;;1.30;;
20365;SDS011;10341;49.894;8.822;2022-08-01T15:29:24;2.55;;;1.30;;
20365;SDS011;10341;49.894;8.822;2022-08-01T15:34:43;2.08;;;1.52;;
20365;SDS011;10341;49.894;8.822;2022-08-01T15:40:03;1.50;;;1.40;;
20365;SDS011;10341;49.894;8.822;2022-08-01T15:45:24;1.65;;;1.33;;
20365;SDS011;10341;49.894;8.822;2022-08-01T15:50:44;1.90;;;1.70;;
20365;SDS011;10341;49.894;8.822;2022-08-01T15:56:03;2.10;;;1.90;;
20365;SDS011;10341;49.894;8.822;2022-08-01T16:01:23;3.70;;;1.60;;
20365;SDS011;10341;49.894;8.822;2022-08-01T16:06:44;6.25;;;3.03;;
20365;SDS011;10341;49.894;8.822;2022-08-01T16:12:05;5.10;;;2.60;;
20365;SDS011;10341;49.894;8.822;2022-08-01T16:17:24;7.30;;;2.28;;
20365;SDS011;10341;49.894;8.822;2022-08-01T16:22:43;4.70;;;2.40;;
20365;SDS011;10341;49.894;8.822;2022-08-01T16:28:02;2.88;;;2.47;;
20365;SDS011;10341;49.894;8.822;2022-08-01T16:33:22;2.92;;;1.80;;
20365;SDS011;10341;49.894;8.822;2022-08-01T16:38:42;2.97;;;1.83;;
20365;SDS011;10341;49.894;8.822;2022-08-01T16:49:21;2.80;;;1.98;;
20365;SDS011;10341;49.894;8.822;2022-08-01T16:54:40;2.63;;;2.10;;
20365;SDS011;10341;49.894;8.822;2022-08-01T16:59:59;4.60;;;2.58;;
20365;SDS011;10341;49.894;8.822;2022-08-01T17:05:19;3.20;;;2.47;;
20365;SDS011;10341;49.894;8.822;2022-08-01T17:10:40;3.38;;;2.40;;
20365;SDS011;10341;49.894;8.822;2022-08-01T17:15:59;5.15;;;2.38;;
20365;SDS011;10341;49.894;8.822;2022-08-01T17:21:18;2.60;;;2.37;;
20365;SDS011;10341;49.894;8.822;2022-08-01T17:26:37;2.72;;;2.08;;
20365;SDS011;10341;49.894;8.822;2022-08-01T17:31:56;3.50;;;2.60;;
20365;SDS011;10341;49.894;8.822;2022-08-01T17:37:15;4.75;;;3.20;;
20365;SDS011;10341;49.894;8.822;2022-08-01T17:42:35;4.28;;;2.67;;
20365;SDS011;10341;49.894;8.822;2022-08-01T17:47:55;3.53;;;2.75;;
20365;SDS011;10341;49.894;8.822;2022-08-01T17:53:14;5.53;;;3.47;;
20365;SDS011;10341;49.894;8.822;2022-08-01T17:58:34;4.32;;;2.90;;
20365;SDS011;10341;49.894;8.822;2022-08-01T18:03:53;5.78;;;4.30;;
20365;SDS011;10341;49.894;8.822;2022-08-01T18:09:14;4.40;;;3.47;;
20365;SDS011;10341;49.894;8.822;2022-08-01T18:14:33;4.25;;;3.40;;
20365;SDS011;10341;49.894;8.822;2022-08-01T18:19:52;4.22;;;3.15;;
20365;SDS011;10341;49.894;8.822;2022-08-01T18:25:11;4.28;;;3.30;;
20365;SDS011;10341;49.894;8.822;2022-08-01T18:30:30;3.58;;;3.13;;
20365;SDS011;10341;49.894;8.822;2022-08-01T18:35:50;4.22;;;2.95;;
20365;SDS011;10341;49.894;8.822;2022-08-01T18:41:09;4.10;;;3.07;;
20365;SDS011;10341;49.894;8.822;2022-08-01T18:46:29;4.18;;;3.00;;
20365;SDS011;10341;49.894;8.822;2022-08-01T18:51:48;4.37;;;3.60;;
20365;SDS011;10341;49.894;8.822;2022-08-01T18:57:07;3.75;;;3.40;;
20365;SDS011;10341;49.894;8.822;2022-08-01T19:02:27;3.90;;;2.90;;
20365;SDS011;10341;49.894;8.822;2022-08-01T19:07:46;5.88;;;2.95;;
20365;SDS011;10341;49.894;8.822;2022-08-01T19:13:05;6.53;;;4.78;;
20365;SDS011;10341;49.894;8.822;2022-08-01T19:23:45;3.72;;;3.20;;
20365;SDS011;10341;49.894;8.822;2022-08-01T19:29:24;3.42;;;3.13;;
20365;SDS011;10341;49.894;8.822;2022-08-01T19:34:46;4.00;;;3.00;;
20365;SDS011;10341;49.894;8.822;2022-08-01T19:40:09;4.68;;;3.85;;
20365;SDS011;10341;49.894;8.822;2022-08-01T19:45:30;4.43;;;3.30;;
20365;SDS011;10341;49.894;8.822;2022-08-01T19:50:49;4.18;;;3.30;;
20365;SDS011;10341;49.894;8.822;2022-08-01T19:56:10;3.95;;;3.15;;
20365;SDS011;10341;49.894;8.822;2022-08-01T20:01:31;3.70;;;3.10;;
20365;SDS011;10341;49.894;8.822;2022-08-01T20:06:51;4.35;;;3.40;;
20365;SDS011;10341;49.894;8.822;2022-08-01T20:17:30;4.70;;;3.72;;
20365;SDS011;10341;49.894;8.822;2022-08-01T20:22:49;4.65;;;3.30;;
20365;SDS011;10341;49.894;8.822;2022-08-01T20:28:14;4.30;;;3.35;;
20365;SDS011;10341;49.894;8.822;2022-08-01T20:33:38;5.47;;;3.22;;
20365;SDS011;10341;49.894;8.822;2022-08-01T20:38:59;4.00;;;3.40;;
20365;SDS011;10341;49.894;8.822;2022-08-01T20:44:19;5.75;;;4.00;;
20365;SDS011;10341;49.894;8.822;2022-08-01T20:49:40;4.38;;;3.88;;
20365;SDS011;10341;49.894;8.822;2022-08-01T20:55:01;4.80;;;3.75;;
20365;SDS011;10341;49.894;8.822;2022-08-01T21:00:20;5.23;;;4.23;;
20365;SDS011;10341;49.894;8.822;2022-08-01T21:05:41;6.27;;;4.13;;
20365;SDS011;10341;49.894;8.822;2022-08-01T21:11:02;4.65;;;3.90;;
20365;SDS011;10341;49.894;8.822;2022-08-01T21:16:23;5.82;;;4.18;;
20365;SDS011;10341;49.894;8.822;2022-08-01T21:21:49;4.57;;;3.92;;
20365;SDS011;10341;49.894;8.822;2022-08-01T21:27:14;5.03;;;3.58;;
20365;SDS011;10341;49.894;8.822;2022-08-01T21:32:34;4.85;;;3.85;;
20365;SDS011;10341;49.894;8.822;2022-08-01T21:37:56;4.95;;;4.03;;
20365;SDS011;10341;49.894;8.822;2022-08-01T21:43:19;5.88;;;4.10;;
20365;SDS011;10341;49.894;8.822;2022-08-01T21:48:39;5.32;;;4.22;;
20365;SDS011;10341;49.894;8.822;2022-08-01T21:59:42;4.55;;;3.90;;
20365;SDS011;10341;49.894;8.822;2022-08-01T22:05:10;5.60;;;4.10;;
20365;SDS011;10341;49.894;8.822;2022-08-01T22:10:30;4.80;;;4.32;;
20365;SDS011;10341;49.894;8.822;2022-08-01T22:15:49;5.57;;;4.60;;
20365;SDS011;10341;49.894;8.822;2022-08-01T22:21:10;5.65;;;4.22;;
20365;SDS011;10341;49.894;8.822;2022-08-01T22:31:50;4.32;;;3.88;;
20365;SDS011;10341;49.894;8.822;2022-08-01T22:37:14;5.53;;;4.20;;
20365;SDS011;10341;49.894;8.822;2022-08-01T22:42:37;4.88;;;4.13;;
20365;SDS011;10341;49.894;8.822;2022-08-01T22:48:13;4.15;;;3.75;;
20365;SDS011;10341;49.894;8.822;2022-08-01T22:59:07;4.70;;;3.70;;
20365;SDS011;10341;49.894;8.822;2022-08-01T23:04:38;5.22;;;4.25;;
20365;SDS011;10341;49.894;8.822;2022-08-01T23:10:03;4.50;;;4.10;;
20365;SDS011;10341;49.894;8.822;2022-08-01T23:15:24;5.10;;;3.97;;
20365;SDS011;10341;49.894;8.822;2022-08-01T23:20:44;4.80;;;3.70;;
20365;SDS011;10341;49.894;8.822;2022-08-01T23:26:05;5.25;;;4.20;;
20365;SDS011;10341;49.894;8.822;2022-08-01T23:31:25;4.82;;;3.80;;
20365;SDS011;10341;49.894;8.822;2022-08-01T23:36:45;6.65;;;3.90;;
20365;SDS011;10341;49.894;8.822;2022-08-01T23:42:05;5.93;;;3.78;;
20365;SDS011;10341;49.894;8.822;2022-08-01T23:52:44;6.45;;;3.50;;
20365;SDS011;10341;49.894;8.822;2022-08-01T23:58:04;4.60;;;3.90;;
